Time;durP1;ratioP1;P1;durP2;ratioP2;P2;SDS_P1;SDS_P2;PMS_P1;PMS_P2;Temp;Humidity;BMP_temperature;BMP_pressure;BME280_temperature;BME280_humidity;BME280_pressure;Samples;Min_cycle;Max_cycle;Signal;HPM_P1;HPM_P2
2023/07/30 00:06:18;;;;;;;4.35;2.13;;;;;;;23.43;55.09;99901.91;41331399;28;20516;-77
2023/07/30 00:26:20;;;;;;;1.98;1.80;;;;;;;23.46;54.50;99891.03;41320047;28;20060;-76
2023/07/30 00:46:20;;;;;;;2.92;1.27;;;;;;;23.46;51.88;99877.81;41304982;28;20814;-78
2023/07/30 01:06:21;;;;;;;1.23;1.13;;;;;;;23.61;50.07;99867.63;41357151;28;20035;-83
2023/07/30 01:26:27;;;;;;;2.22;1.50;;;;;;;23.71;50.25;99863.09;41369207;28;20069;-82
2023/07/30 01:46:27;;;;;;;1.50;1.40;;;;;;;23.73;50.81;99815.34;41362154;28;20203;-81
2023/07/30 02:06:27;;;;;;;1.77;1.33;;;;;;;23.74;50.83;99815.22;41329101;28;20109;-82
2023/07/30 02:26:28;;;;;;;1.38;1.20;;;;;;;23.71;51.01;99826.09;41355280;28;20571;-83
2023/07/30 02:46:28;;;;;;;1.25;1.15;;;;;;;23.61;51.28;99836.72;41336189;28;20109;-83
2023/07/30 03:06:29;;;;;;;1.83;1.60;;;;;;;23.48;52.44;99839.69;41342527;28;20046;-84
2023/07/30 03:26:29;;;;;;;2.28;1.60;;;;;;;23.41;52.73;99832.53;41334181;28;20512;-84
2023/07/30 03:46:29;;;;;;;1.92;1.35;;;;;;;23.41;53.01;99845.72;41328632;28;20042;-83
2023/07/30 04:06:30;;;;;;;5.10;1.98;;;;;;;23.33;54.13;99852.56;41319783;28;20046;-84
2023/07/30 04:26:30;;;;;;;2.90;1.60;;;;;;;23.37;53.98;99871.59;41316394;28;20500;-84
2023/07/30 04:46:33;;;;;;;2.40;1.73;;;;;;;23.36;54.50;99869.94;41315630;28;20050;-84
2023/07/30 05:06:33;;;;;;;3.75;1.70;;;;;;;23.43;54.49;99886.06;41316910;28;20039;-82
2023/07/30 05:26:34;;;;;;;1.77;1.42;;;;;;;23.46;53.57;99888.41;41318024;28;20065;-74
2023/07/30 05:46:34;;;;;;;5.55;1.65;;;;;;;23.52;54.09;99882.53;41326570;28;21079;-74
2023/07/30 06:06:34;;;;;;;2.03;1.67;;;;;;;23.57;53.69;99887.38;41323369;28;20054;-76
2023/07/30 06:26:35;;;;;;;2.75;1.80;;;;;;;23.65;53.94;99888.28;41314735;28;20051;-76
2023/07/30 06:46:35;;;;;;;2.00;1.60;;;;;;;23.70;53.13;99889.69;41371788;28;20148;-81
2023/07/30 07:06:36;;;;;;;1.38;1.27;;;;;;;23.80;52.17;99883.38;41384295;28;20046;-82
2023/07/30 07:26:36;;;;;;;1.50;1.40;;;;;;;23.87;52.80;99925.88;41341601;28;20069;-81
2023/07/30 07:46:37;;;;;;;1.75;1.40;;;;;;;23.89;53.66;99947.75;41374202;28;20073;-82
2023/07/30 08:06:37;;;;;;;2.67;1.80;;;;;;;23.79;58.03;99962.81;41333089;28;20077;-76
2023/07/30 08:26:38;;;;;;;5.95;1.75;;;;;;;23.60;57.98;99991.00;41326054;28;20133;-82
2023/07/30 08:46:39;;;;;;;3.00;2.22;;;;;;;23.45;59.92;100003.84;41321494;28;20030;-83
2023/07/30 09:06:40;;;;;;;3.95;2.20;;;;;;;-147.24;100.00;62006.19;41339432;28;20428;-73
2023/07/30 09:26:46;;;;;;;5.05;3.40;;;;;;;-147.24;100.00;62006.19;41357231;28;20095;-84
2023/07/30 09:46:49;;;;;;;3.00;2.50;;;;;;;-147.24;100.00;62006.19;41369801;28;20142;-77
2023/07/30 10:06:56;;;;;;;2.78;1.80;;;;;;;-147.24;100.00;62006.19;41331472;28;20080;-79
2023/07/30 10:26:59;;;;;;;8.00;6.28;;;;;;;-147.24;100.00;62006.19;41347822;28;20052;-77
2023/07/30 10:47:01;;;;;;;3.38;2.25;;;;;;;-147.24;100.00;62006.19;41295328;28;20688;-77
2023/07/30 11:07:03;;;;;;;4.72;2.15;;;;;;;-147.24;100.00;62006.19;41291683;28;20047;-76
2023/07/30 11:27:04;;;;;;;2.53;2.03;;;;;;;-147.24;100.00;62006.19;41320796;28;20092;-77
2023/07/30 11:47:05;;;;;;;6.72;4.75;;;;;;;-147.24;100.00;62006.19;41293278;28;20048;-78
2023/07/30 12:07:10;;;;;;;2.75;2.28;;;;;;;-147.24;100.00;62006.19;41327722;28;20106;-77
2023/07/30 12:27:11;;;;;;;3.55;2.42;;;;;;;-147.24;100.00;62006.19;41320465;28;20080;-76
2023/07/30 12:47:11;;;;;;;2.80;2.20;;;;;;;-147.24;100.00;62006.19;41325572;28;20050;-75
2023/07/30 13:07:12;;;;;;;8.93;1.98;;;;;;;-147.24;100.00;62006.19;41357695;28;20042;-76
2023/07/30 13:27:13;;;;;;;2.00;1.80;;;;;;;-147.24;100.00;62006.19;41361291;28;20042;-77
2023/07/30 13:47:14;;;;;;;3.95;2.28;;;;;;;-147.24;100.00;62006.19;41343751;28;20042;-81
2023/07/30 14:07:15;;;;;;;2.53;2.28;;;;;;;-147.24;100.00;62006.19;41322190;28;20414;-79
2023/07/30 14:27:17;;;;;;;2.25;1.92;;;;;;;-147.24;100.00;62006.19;41360379;28;20548;-83
2023/07/30 14:47:22;;;;;;;2.50;2.28;;;;;;;-147.24;100.00;62006.19;41297025;28;20114;-84
2023/07/30 15:07:25;;;;;;;1.92;1.73;;;;;;;-147.24;100.00;62006.19;41326084;28;20050;-77
2023/07/30 15:27:25;;;;;;;3.60;1.77;;;;;;;-147.24;100.00;62006.19;41322883;28;20069;-75
2023/07/30 15:47:26;;;;;;;1.65;1.27;;;;;;;-147.24;100.00;62006.19;41326196;28;20170;-78
2023/07/30 16:07:27;;;;;;;1.52;1.20;;;;;;;-147.24;100.00;62006.19;41311429;28;20108;-77
2023/07/30 16:27:28;;;;;;;2.03;1.48;;;;;;;-147.24;100.00;62006.19;41292150;28;20057;-79
2023/07/30 16:47:28;;;;;;;1.60;1.50;;;;;;;-147.24;100.00;62006.19;41314335;28;20764;-79
2023/07/30 17:07:37;;;;;;;2.05;1.58;;;;;;;-147.24;100.00;62006.19;41347226;28;20073;-79
2023/07/30 17:27:37;;;;;;;2.70;1.65;;;;;;;-147.24;100.00;62006.19;41320230;28;20043;-79
2023/07/30 17:47:38;;;;;;;3.05;1.90;;;;;;;-147.24;100.00;62006.19;41342734;28;20085;-80
2023/07/30 18:07:39;;;;;;;1.67;1.40;;;;;;;-147.24;100.00;62006.19;41345478;28;20094;-79
2023/07/30 18:27:40;;;;;;;3.00;1.85;;;;;;;-147.24;100.00;62006.19;41335301;28;20401;-80
2023/07/30 18:47:42;;;;;;;2.17;1.90;;;;;;;-147.24;100.00;62006.19;41365673;28;20050;-80
2023/07/30 19:07:43;;;;;;;1.80;1.52;;;;;;;-147.24;100.00;62006.19;41306240;28;20029;-76
2023/07/30 19:27:46;;;;;;;2.08;1.60;;;;;;;-147.24;100.00;62006.19;41307297;28;20485;-75
2023/07/30 19:47:46;;;;;;;3.30;1.90;;;;;;;-147.24;100.00;62006.19;41322008;28;20184;-75
2023/07/30 20:07:47;;;;;;;1.52;1.42;;;;;;;-147.24;100.00;62006.19;41276749;28;20112;-75
2023/07/30 20:27:48;;;;;;;16.02;2.05;;;;;;;-147.24;100.00;62006.19;41304810;28;20042;-78
2023/07/30 20:47:51;;;;;;;1.60;1.50;;;;;;;-147.24;100.00;62006.19;41316361;28;20048;-77
2023/07/30 21:07:52;;;;;;;5.18;2.03;;;;;;;-147.24;100.00;62006.19;41324177;28;20046;-77
2023/07/30 21:27:52;;;;;;;2.22;2.00;;;;;;;-147.24;100.00;62006.19;41344609;28;20038;-78
2023/07/30 21:47:53;;;;;;;2.72;2.10;;;;;;;-147.24;100.00;62006.19;41337877;28;20042;-78
2023/07/30 22:07:53;;;;;;;3.10;2.72;;;;;;;-147.24;100.00;62006.19;41294012;28;20038;-78
2023/07/30 22:27:54;;;;;;;2.92;2.60;;;;;;;-147.24;100.00;62006.19;41353312;28;20132;-77
2023/07/30 22:47:54;;;;;;;2.70;2.20;;;;;;;-147.24;100.00;62006.19;41338904;28;20566;-76
2023/07/30 23:07:55;;;;;;;2.60;2.25;;;;;;;-147.24;100.00;62006.19;41328155;28;20531;-77
2023/07/30 23:27:55;;;;;;;2.03;1.90;;;;;;;-147.24;100.00;62006.19;41331352;28;20548;-75
2023/07/30 23:47:56;;;;;;;2.85;2.20;;;;;;;-147.24;100.00;62006.19;41350738;28;20057;-77
